sensor_id;sensor_type;location;lat;lon;timestamp;temperature;humidity
38464;DHT22;24243;51.956;5.902;2022-12-18T00:01:20;18.10;36.80
38464;DHT22;24243;51.956;5.902;2022-12-18T00:03:47;18.10;36.80
38464;DHT22;24243;51.956;5.902;2022-12-18T00:06:12;18.10;36.90
38464;DHT22;24243;51.956;5.902;2022-12-18T00:08:39;18.00;36.80
38464;DHT22;24243;51.956;5.902;2022-12-18T00:11:05;18.00;36.80
38464;DHT22;24243;51.956;5.902;2022-12-18T00:13:33;18.00;36.80
38464;DHT22;24243;51.956;5.902;2022-12-18T00:16:03;18.00;36.80
38464;DHT22;24243;51.956;5.902;2022-12-18T00:18:29;18.00;36.80
38464;DHT22;24243;51.956;5.902;2022-12-18T00:20:57;17.90;36.80
38464;DHT22;24243;51.956;5.902;2022-12-18T00:23:23;17.90;36.80
38464;DHT22;24243;51.956;5.902;2022-12-18T00:25:49;17.90;36.80
38464;DHT22;24243;51.956;5.902;2022-12-18T00:28:14;17.80;36.80
38464;DHT22;24243;51.956;5.902;2022-12-18T00:30:40;17.80;36.80
38464;DHT22;24243;51.956;5.902;2022-12-18T00:33:05;17.80;36.80
38464;DHT22;24243;51.956;5.902;2022-12-18T00:35:31;17.80;36.80
38464;DHT22;24243;51.956;5.902;2022-12-18T00:37:56;17.70;36.70
38464;DHT22;24243;51.956;5.902;2022-12-18T00:40:22;17.70;36.70
38464;DHT22;24243;51.956;5.902;2022-12-18T00:42:47;17.70;36.70
38464;DHT22;24243;51.956;5.902;2022-12-18T00:45:26;17.70;36.70
38464;DHT22;24243;51.956;5.902;2022-12-18T00:47:52;17.70;36.60
38464;DHT22;24243;51.956;5.902;2022-12-18T00:50:18;17.60;36.60
38464;DHT22;24243;51.956;5.902;2022-12-18T00:52:44;17.60;36.60
38464;DHT22;24243;51.956;5.902;2022-12-18T00:55:09;17.50;36.50
38464;DHT22;24243;51.956;5.902;2022-12-18T00:57:35;17.50;36.50
38464;DHT22;24243;51.956;5.902;2022-12-18T01:00:01;17.50;36.50
38464;DHT22;24243;51.956;5.902;2022-12-18T01:02:26;17.50;36.50
38464;DHT22;24243;51.956;5.902;2022-12-18T01:04:52;17.40;36.40
38464;DHT22;24243;51.956;5.902;2022-12-18T01:07:17;17.40;36.40
38464;DHT22;24243;51.956;5.902;2022-12-18T01:09:43;17.40;36.40
38464;DHT22;24243;51.956;5.902;2022-12-18T01:12:08;17.30;36.40
38464;DHT22;24243;51.956;5.902;2022-12-18T01:14:34;17.40;36.40
38464;DHT22;24243;51.956;5.902;2022-12-18T01:16:59;17.30;36.40
38464;DHT22;24243;51.956;5.902;2022-12-18T01:19:27;17.30;36.30
38464;DHT22;24243;51.956;5.902;2022-12-18T01:21:53;17.30;36.30
38464;DHT22;24243;51.956;5.902;2022-12-18T01:24:19;17.20;36.20
38464;DHT22;24243;51.956;5.902;2022-12-18T01:26:45;17.20;36.20
38464;DHT22;24243;51.956;5.902;2022-12-18T01:29:10;17.20;36.20
38464;DHT22;24243;51.956;5.902;2022-12-18T01:31:36;17.20;36.30
38464;DHT22;24243;51.956;5.902;2022-12-18T01:34:02;17.10;36.20
38464;DHT22;24243;51.956;5.902;2022-12-18T01:36:29;17.20;36.30
38464;DHT22;24243;51.956;5.902;2022-12-18T01:38:55;17.10;36.20
38464;DHT22;24243;51.956;5.902;2022-12-18T01:41:22;17.10;36.20
38464;DHT22;24243;51.956;5.902;2022-12-18T01:43:55;17.10;36.10
38464;DHT22;24243;51.956;5.902;2022-12-18T01:46:26;17.10;36.20
38464;DHT22;24243;51.956;5.902;2022-12-18T01:48:56;17.10;36.10
38464;DHT22;24243;51.956;5.902;2022-12-18T01:51:22;17.00;36.10
38464;DHT22;24243;51.956;5.902;2022-12-18T01:53:48;17.00;36.10
38464;DHT22;24243;51.956;5.902;2022-12-18T01:56:15;17.00;36.10
38464;DHT22;24243;51.956;5.902;2022-12-18T01:58:43;17.00;36.10
38464;DHT22;24243;51.956;5.902;2022-12-18T02:01:11;17.00;36.10
38464;DHT22;24243;51.956;5.902;2022-12-18T02:03:36;16.90;36.00
38464;DHT22;24243;51.956;5.902;2022-12-18T02:16:26;16.90;36.00
38464;DHT22;24243;51.956;5.902;2022-12-18T02:18:58;16.90;35.90
38464;DHT22;24243;51.956;5.902;2022-12-18T02:21:36;16.80;35.90
38464;DHT22;24243;51.956;5.902;2022-12-18T02:27:04;16.80;35.90
38464;DHT22;24243;51.956;5.902;2022-12-18T02:32:00;16.70;35.80
38464;DHT22;24243;51.956;5.902;2022-12-18T02:34:28;16.70;35.80
38464;DHT22;24243;51.956;5.902;2022-12-18T02:36:54;16.70;35.90
38464;DHT22;24243;51.956;5.902;2022-12-18T02:39:20;16.70;35.80
38464;DHT22;24243;51.956;5.902;2022-12-18T02:41:47;16.70;35.80
38464;DHT22;24243;51.956;5.902;2022-12-18T02:44:13;16.70;35.80
38464;DHT22;24243;51.956;5.902;2022-12-18T02:46:40;16.60;35.70
38464;DHT22;24243;51.956;5.902;2022-12-18T02:49:11;16.60;35.70
38464;DHT22;24243;51.956;5.902;2022-12-18T02:54:33;16.60;35.70
38464;DHT22;24243;51.956;5.902;2022-12-18T02:57:05;16.60;35.70
38464;DHT22;24243;51.956;5.902;2022-12-18T02:59:40;16.60;35.70
38464;DHT22;24243;51.956;5.902;2022-12-18T03:04:34;16.50;35.60
38464;DHT22;24243;51.956;5.902;2022-12-18T03:07:02;16.50;35.60
38464;DHT22;24243;51.956;5.902;2022-12-18T03:09:31;16.50;35.60
38464;DHT22;24243;51.956;5.902;2022-12-18T03:12:06;16.50;35.60
38464;DHT22;24243;51.956;5.902;2022-12-18T03:14:54;16.50;35.60
38464;DHT22;24243;51.956;5.902;2022-12-18T03:17:22;16.50;35.50
38464;DHT22;24243;51.956;5.902;2022-12-18T03:19:49;16.50;35.50
38464;DHT22;24243;51.956;5.902;2022-12-18T03:22:16;16.50;35.50
38464;DHT22;24243;51.956;5.902;2022-12-18T03:24:43;16.50;35.50
38464;DHT22;24243;51.956;5.902;2022-12-18T03:27:10;16.50;35.50
38464;DHT22;24243;51.956;5.902;2022-12-18T03:32:10;16.50;35.40
38464;DHT22;24243;51.956;5.902;2022-12-18T03:34:37;16.50;35.40
38464;DHT22;24243;51.956;5.902;2022-12-18T03:37:03;16.50;35.40
38464;DHT22;24243;51.956;5.902;2022-12-18T03:39:30;16.50;35.40
38464;DHT22;24243;51.956;5.902;2022-12-18T03:44:28;16.50;35.40
38464;DHT22;24243;51.956;5.902;2022-12-18T03:52:09;16.40;35.30
38464;DHT22;24243;51.956;5.902;2022-12-18T03:54:36;16.40;35.20
38464;DHT22;24243;51.956;5.902;2022-12-18T03:57:06;16.50;35.30
38464;DHT22;24243;51.956;5.902;2022-12-18T03:59:32;16.40;35.20
38464;DHT22;24243;51.956;5.902;2022-12-18T04:01:59;16.50;35.20
38464;DHT22;24243;51.956;5.902;2022-12-18T04:04:25;16.50;35.20
38464;DHT22;24243;51.956;5.902;2022-12-18T04:06:52;16.40;35.10
38464;DHT22;24243;51.956;5.902;2022-12-18T04:09:19;16.50;35.20
38464;DHT22;24243;51.956;5.902;2022-12-18T04:11:45;16.40;35.10
38464;DHT22;24243;51.956;5.902;2022-12-18T04:14:11;16.50;35.20
38464;DHT22;24243;51.956;5.902;2022-12-18T04:16:37;16.50;35.10
38464;DHT22;24243;51.956;5.902;2022-12-18T04:19:03;16.50;35.10
38464;DHT22;24243;51.956;5.902;2022-12-18T04:21:28;16.50;35.10
38464;DHT22;24243;51.956;5.902;2022-12-18T04:23:54;16.50;35.10
38464;DHT22;24243;51.956;5.902;2022-12-18T04:26:19;16.50;35.10
38464;DHT22;24243;51.956;5.902;2022-12-18T04:28:45;16.50;35.10
38464;DHT22;24243;51.956;5.902;2022-12-18T04:31:11;16.50;35.10
38464;DHT22;24243;51.956;5.902;2022-12-18T04:33:36;16.50;35.10
38464;DHT22;24243;51.956;5.902;2022-12-18T04:36:02;16.50;35.20
38464;DHT22;24243;51.956;5.902;2022-12-18T04:38:28;16.60;35.30
38464;DHT22;24243;51.956;5.902;2022-12-18T04:40:53;16.60;35.40
38464;DHT22;24243;51.956;5.902;2022-12-18T04:43:19;16.60;35.40
38464;DHT22;24243;51.956;5.902;2022-12-18T04:45:44;16.60;35.30
38464;DHT22;24243;51.956;5.902;2022-12-18T04:48:10;16.60;35.30
38464;DHT22;24243;51.956;5.902;2022-12-18T04:50:36;16.60;35.30
38464;DHT22;24243;51.956;5.902;2022-12-18T04:53:01;16.60;35.20
38464;DHT22;24243;51.956;5.902;2022-12-18T04:55:27;16.60;35.20
38464;DHT22;24243;51.956;5.902;2022-12-18T04:57:52;16.60;35.20
38464;DHT22;24243;51.956;5.902;2022-12-18T05:00:18;16.60;35.10
38464;DHT22;24243;51.956;5.902;2022-12-18T05:02:44;16.60;35.10
38464;DHT22;24243;51.956;5.902;2022-12-18T05:05:09;16.60;35.10
38464;DHT22;24243;51.956;5.902;2022-12-18T05:07:35;16.60;35.10
38464;DHT22;24243;51.956;5.902;2022-12-18T05:10:00;16.70;35.20
38464;DHT22;24243;51.956;5.902;2022-12-18T05:12:26;16.70;35.20
38464;DHT22;24243;51.956;5.902;2022-12-18T05:14:51;16.70;35.20
38464;DHT22;24243;51.956;5.902;2022-12-18T05:17:17;16.70;35.10
38464;DHT22;24243;51.956;5.902;2022-12-18T05:19:43;16.70;35.10
38464;DHT22;24243;51.956;5.902;2022-12-18T05:22:09;16.70;35.10
38464;DHT22;24243;51.956;5.902;2022-12-18T05:24:34;16.70;35.10
38464;DHT22;24243;51.956;5.902;2022-12-18T05:27:00;16.70;35.10
38464;DHT22;24243;51.956;5.902;2022-12-18T05:29:26;16.70;35.00
38464;DHT22;24243;51.956;5.902;2022-12-18T05:31:51;16.70;35.00
38464;DHT22;24243;51.956;5.902;2022-12-18T05:34:17;16.70;35.00
38464;DHT22;24243;51.956;5.902;2022-12-18T05:36:42;16.70;35.00
38464;DHT22;24243;51.956;5.902;2022-12-18T05:39:08;16.70;35.00
38464;DHT22;24243;51.956;5.902;2022-12-18T05:41:33;16.70;35.00
38464;DHT22;24243;51.956;5.902;2022-12-18T05:43:59;16.70;34.90
38464;DHT22;24243;51.956;5.902;2022-12-18T05:46:25;16.70;34.90
38464;DHT22;24243;51.956;5.902;2022-12-18T05:48:50;16.70;34.90
38464;DHT22;24243;51.956;5.902;2022-12-18T05:51:17;16.70;34.90
38464;DHT22;24243;51.956;5.902;2022-12-18T05:53:44;16.70;34.80
38464;DHT22;24243;51.956;5.902;2022-12-18T05:56:14;16.70;34.80
38464;DHT22;24243;51.956;5.902;2022-12-18T05:58:40;16.70;34.80
38464;DHT22;24243;51.956;5.902;2022-12-18T06:01:10;16.70;34.80
38464;DHT22;24243;51.956;5.902;2022-12-18T06:03:35;16.70;34.80
38464;DHT22;24243;51.956;5.902;2022-12-18T06:06:01;16.70;34.80
38464;DHT22;24243;51.956;5.902;2022-12-18T06:08:27;16.70;34.80
38464;DHT22;24243;51.956;5.902;2022-12-18T06:10:52;16.70;34.80
38464;DHT22;24243;51.956;5.902;2022-12-18T06:13:19;16.70;34.70
38464;DHT22;24243;51.956;5.902;2022-12-18T06:15:44;16.70;34.70
38464;DHT22;24243;51.956;5.902;2022-12-18T06:18:10;16.70;34.70
38464;DHT22;24243;51.956;5.902;2022-12-18T06:20:35;16.70;34.70
38464;DHT22;24243;51.956;5.902;2022-12-18T06:23:02;16.70;34.70
38464;DHT22;24243;51.956;5.902;2022-12-18T06:25:28;16.70;34.60
38464;DHT22;24243;51.956;5.902;2022-12-18T06:27:53;16.70;34.70
38464;DHT22;24243;51.956;5.902;2022-12-18T06:30:19;16.70;34.70
38464;DHT22;24243;51.956;5.902;2022-12-18T06:32:44;16.70;34.70
38464;DHT22;24243;51.956;5.902;2022-12-18T06:35:10;16.70;34.70
38464;DHT22;24243;51.956;5.902;2022-12-18T06:37:35;16.70;34.70
38464;DHT22;24243;51.956;5.902;2022-12-18T06:40:01;16.70;34.70
38464;DHT22;24243;51.956;5.902;2022-12-18T06:42:28;16.70;34.60
38464;DHT22;24243;51.956;5.902;2022-12-18T06:44:53;16.70;34.60
38464;DHT22;24243;51.956;5.902;2022-12-18T06:47:19;16.70;34.50
38464;DHT22;24243;51.956;5.902;2022-12-18T06:49:44;16.70;34.50
38464;DHT22;24243;51.956;5.902;2022-12-18T06:52:10;16.60;34.30
38464;DHT22;24243;51.956;5.902;2022-12-18T06:54:36;16.70;34.30
38464;DHT22;24243;51.956;5.902;2022-12-18T06:57:01;16.60;34.20
38464;DHT22;24243;51.956;5.902;2022-12-18T06:59:27;16.60;34.20
38464;DHT22;24243;51.956;5.902;2022-12-18T07:01:53;16.60;34.20
38464;DHT22;24243;51.956;5.902;2022-12-18T07:04:18;16.60;34.10
38464;DHT22;24243;51.956;5.902;2022-12-18T07:06:44;16.60;34.10
38464;DHT22;24243;51.956;5.902;2022-12-18T07:09:10;16.60;34.10
38464;DHT22;24243;51.956;5.902;2022-12-18T07:11:35;16.60;34.20
38464;DHT22;24243;51.956;5.902;2022-12-18T07:14:01;16.60;34.10
38464;DHT22;24243;51.956;5.902;2022-12-18T07:16:26;16.60;34.10
38464;DHT22;24243;51.956;5.902;2022-12-18T07:18:54;16.60;34.20
38464;DHT22;24243;51.956;5.902;2022-12-18T07:21:20;16.60;34.20
38464;DHT22;24243;51.956;5.902;2022-12-18T07:23:45;16.70;34.30
38464;DHT22;24243;51.956;5.902;2022-12-18T07:26:14;16.70;34.40
38464;DHT22;24243;51.956;5.902;2022-12-18T07:28:40;16.80;34.50
38464;DHT22;24243;51.956;5.902;2022-12-18T07:31:07;16.80;34.60
38464;DHT22;24243;51.956;5.902;2022-12-18T07:33:33;16.80;34.60
38464;DHT22;24243;51.956;5.902;2022-12-18T07:35:59;16.90;34.60
38464;DHT22;24243;51.956;5.902;2022-12-18T07:38:25;16.90;34.60
38464;DHT22;24243;51.956;5.902;2022-12-18T07:40:51;17.00;34.70
38464;DHT22;24243;51.956;5.902;2022-12-18T07:43:16;17.10;34.80
38464;DHT22;24243;51.956;5.902;2022-12-18T07:45:42;17.20;34.90
38464;DHT22;24243;51.956;5.902;2022-12-18T07:48:08;17.20;34.90
38464;DHT22;24243;51.956;5.902;2022-12-18T07:50:33;17.30;34.90
38464;DHT22;24243;51.956;5.902;2022-12-18T07:52:59;17.30;34.90
38464;DHT22;24243;51.956;5.902;2022-12-18T07:55:29;17.40;35.00
38464;DHT22;24243;51.956;5.902;2022-12-18T07:57:55;17.40;34.90
38464;DHT22;24243;51.956;5.902;2022-12-18T08:00:20;17.40;35.00
38464;DHT22;24243;51.956;5.902;2022-12-18T08:02:46;17.50;35.00
38464;DHT22;24243;51.956;5.902;2022-12-18T08:05:11;17.50;35.00
38464;DHT22;24243;51.956;5.902;2022-12-18T08:07:37;17.60;35.10
38464;DHT22;24243;51.956;5.902;2022-12-18T08:10:03;17.60;35.00
38464;DHT22;24243;51.956;5.902;2022-12-18T08:12:28;17.60;35.00
38464;DHT22;24243;51.956;5.902;2022-12-18T08:14:54;17.70;35.00
38464;DHT22;24243;51.956;5.902;2022-12-18T08:17:20;17.70;35.00
38464;DHT22;24243;51.956;5.902;2022-12-18T08:19:45;17.80;35.00
38464;DHT22;24243;51.956;5.902;2022-12-18T08:22:11;17.80;35.00
38464;DHT22;24243;51.956;5.902;2022-12-18T08:24:36;17.80;35.00
38464;DHT22;24243;51.956;5.902;2022-12-18T08:27:02;17.80;35.00
38464;DHT22;24243;51.956;5.902;2022-12-18T08:29:28;17.90;35.00
38464;DHT22;24243;51.956;5.902;2022-12-18T08:31:53;17.90;35.00
38464;DHT22;24243;51.956;5.902;2022-12-18T08:34:19;17.90;34.90
38464;DHT22;24243;51.956;5.902;2022-12-18T08:36:45;17.90;34.90
38464;DHT22;24243;51.956;5.902;2022-12-18T08:39:10;18.00;35.00
38464;DHT22;24243;51.956;5.902;2022-12-18T08:41:36;18.00;34.90
38464;DHT22;24243;51.956;5.902;2022-12-18T08:44:01;18.00;34.90
38464;DHT22;24243;51.956;5.902;2022-12-18T08:46:45;18.00;34.90
38464;DHT22;24243;51.956;5.902;2022-12-18T08:49:11;18.10;35.00
38464;DHT22;24243;51.956;5.902;2022-12-18T08:51:37;18.10;35.00
38464;DHT22;24243;51.956;5.902;2022-12-18T08:54:03;18.10;35.00
38464;DHT22;24243;51.956;5.902;2022-12-18T08:56:29;18.20;35.00
38464;DHT22;24243;51.956;5.902;2022-12-18T08:58:55;18.20;35.00
38464;DHT22;24243;51.956;5.902;2022-12-18T09:01:21;18.20;35.00
38464;DHT22;24243;51.956;5.902;2022-12-18T09:03:50;18.20;35.00
38464;DHT22;24243;51.956;5.902;2022-12-18T09:06:16;18.20;35.00
38464;DHT22;24243;51.956;5.902;2022-12-18T09:08:43;18.30;35.00
38464;DHT22;24243;51.956;5.902;2022-12-18T09:11:13;18.30;35.00
38464;DHT22;24243;51.956;5.902;2022-12-18T09:13:39;18.30;34.90
38464;DHT22;24243;51.956;5.902;2022-12-18T09:16:05;18.30;34.90
38464;DHT22;24243;51.956;5.902;2022-12-18T09:18:30;18.30;34.80
38464;DHT22;24243;51.956;5.902;2022-12-18T09:20:56;18.30;34.90
38464;DHT22;24243;51.956;5.902;2022-12-18T09:23:21;18.30;34.80
38464;DHT22;24243;51.956;5.902;2022-12-18T09:25:47;18.30;34.80
38464;DHT22;24243;51.956;5.902;2022-12-18T09:28:16;18.30;34.80
38464;DHT22;24243;51.956;5.902;2022-12-18T09:30:42;18.40;34.90
38464;DHT22;24243;51.956;5.902;2022-12-18T09:33:09;18.40;34.90
38464;DHT22;24243;51.956;5.902;2022-12-18T09:35:37;18.40;34.80
38464;DHT22;24243;51.956;5.902;2022-12-18T09:38:03;18.40;34.90
38464;DHT22;24243;51.956;5.902;2022-12-18T09:40:33;18.50;34.90
38464;DHT22;24243;51.956;5.902;2022-12-18T09:43:00;18.50;34.90
38464;DHT22;24243;51.956;5.902;2022-12-18T09:45:29;18.50;35.00
38464;DHT22;24243;51.956;5.902;2022-12-18T09:47:55;18.50;35.00
38464;DHT22;24243;51.956;5.902;2022-12-18T09:50:24;18.60;35.00
38464;DHT22;24243;51.956;5.902;2022-12-18T09:52:53;18.60;35.00
38464;DHT22;24243;51.956;5.902;2022-12-18T09:55:24;18.60;35.00
38464;DHT22;24243;51.956;5.902;2022-12-18T09:57:52;18.60;35.10
38464;DHT22;24243;51.956;5.902;2022-12-18T10:00:22;18.70;35.10
38464;DHT22;24243;51.956;5.902;2022-12-18T10:02:49;18.70;35.10
38464;DHT22;24243;51.956;5.902;2022-12-18T10:05:17;18.70;35.10
38464;DHT22;24243;51.956;5.902;2022-12-18T10:10:46;18.90;34.90
38464;DHT22;24243;51.956;5.902;2022-12-18T10:13:23;18.90;34.80
38464;DHT22;24243;51.956;5.902;2022-12-18T10:15:54;18.90;34.80
38464;DHT22;24243;51.956;5.902;2022-12-18T10:20:49;18.90;34.80
38464;DHT22;24243;51.956;5.902;2022-12-18T10:28:12;18.90;34.90
38464;DHT22;24243;51.956;5.902;2022-12-18T10:30:38;18.90;34.90
38464;DHT22;24243;51.956;5.902;2022-12-18T10:33:04;18.90;34.80
38464;DHT22;24243;51.956;5.902;2022-12-18T10:35:30;18.90;34.90
38464;DHT22;24243;51.956;5.902;2022-12-18T10:38:38;18.90;34.90
38464;DHT22;24243;51.956;5.902;2022-12-18T10:40:49;18.90;34.90
38464;DHT22;24243;51.956;5.902;2022-12-18T10:43:16;18.90;34.90
38464;DHT22;24243;51.956;5.902;2022-12-18T10:45:49;18.90;34.90
38464;DHT22;24243;51.956;5.902;2022-12-18T10:48:23;18.90;34.90
38464;DHT22;24243;51.956;5.902;2022-12-18T10:50:49;18.90;34.90
38464;DHT22;24243;51.956;5.902;2022-12-18T10:53:21;19.00;35.00
38464;DHT22;24243;51.956;5.902;2022-12-18T10:55:48;19.00;35.00
38464;DHT22;24243;51.956;5.902;2022-12-18T10:58:27;18.90;34.90
38464;DHT22;24243;51.956;5.902;2022-12-18T11:01:10;19.00;35.00
38464;DHT22;24243;51.956;5.902;2022-12-18T11:03:37;19.00;34.90
38464;DHT22;24243;51.956;5.902;2022-12-18T11:06:04;19.00;34.90
38464;DHT22;24243;51.956;5.902;2022-12-18T11:08:30;19.00;34.90
38464;DHT22;24243;51.956;5.902;2022-12-18T11:10:56;19.00;34.90
38464;DHT22;24243;51.956;5.902;2022-12-18T11:13:22;19.00;34.90
38464;DHT22;24243;51.956;5.902;2022-12-18T11:15:49;19.00;34.90
38464;DHT22;24243;51.956;5.902;2022-12-18T11:18:16;19.00;34.90
38464;DHT22;24243;51.956;5.902;2022-12-18T11:20:42;19.00;34.90
38464;DHT22;24243;51.956;5.902;2022-12-18T11:23:11;19.10;34.90
38464;DHT22;24243;51.956;5.902;2022-12-18T11:25:37;19.00;34.90
38464;DHT22;24243;51.956;5.902;2022-12-18T11:28:04;19.00;34.90
38464;DHT22;24243;51.956;5.902;2022-12-18T11:32:58;19.00;34.90
38464;DHT22;24243;51.956;5.902;2022-12-18T11:35:45;19.00;34.80
38464;DHT22;24243;51.956;5.902;2022-12-18T11:40:43;19.00;34.80
38464;DHT22;24243;51.956;5.902;2022-12-18T11:43:13;19.00;34.80
38464;DHT22;24243;51.956;5.902;2022-12-18T11:45:45;19.00;34.80
38464;DHT22;24243;51.956;5.902;2022-12-18T11:48:21;18.90;34.80
38464;DHT22;24243;51.956;5.902;2022-12-18T11:50:51;19.00;34.80
38464;DHT22;24243;51.956;5.902;2022-12-18T11:53:17;18.90;34.80
38464;DHT22;24243;51.956;5.902;2022-12-18T11:58:14;18.90;34.70
38464;DHT22;24243;51.956;5.902;2022-12-18T12:00:46;18.90;34.70
38464;DHT22;24243;51.956;5.902;2022-12-18T12:03:21;18.90;34.70
38464;DHT22;24243;51.956;5.902;2022-12-18T12:11:30;18.80;34.50
38464;DHT22;24243;51.956;5.902;2022-12-18T12:14:07;18.80;34.60
38464;DHT22;24243;51.956;5.902;2022-12-18T12:17:22;18.70;34.50
38464;DHT22;24243;51.956;5.902;2022-12-18T12:22:00;18.70;34.60
38464;DHT22;24243;51.956;5.902;2022-12-18T12:24:36;18.70;34.60
38464;DHT22;24243;51.956;5.902;2022-12-18T12:34:41;18.60;34.50
38464;DHT22;24243;51.956;5.902;2022-12-18T12:39:56;18.60;34.60
38464;DHT22;24243;51.956;5.902;2022-12-18T12:45:13;18.50;34.50
38464;DHT22;24243;51.956;5.902;2022-12-18T12:47:41;18.50;34.50
38464;DHT22;24243;51.956;5.902;2022-12-18T12:50:16;18.50;34.50
38464;DHT22;24243;51.956;5.902;2022-12-18T12:52:46;18.50;34.40
38464;DHT22;24243;51.956;5.902;2022-12-18T12:55:17;18.40;34.40
38464;DHT22;24243;51.956;5.902;2022-12-18T12:57:55;18.40;34.30
38464;DHT22;24243;51.956;5.902;2022-12-18T13:00:23;18.30;34.20
38464;DHT22;24243;51.956;5.902;2022-12-18T13:03:01;18.30;34.20
38464;DHT22;24243;51.956;5.902;2022-12-18T13:05:48;18.30;34.10
38464;DHT22;24243;51.956;5.902;2022-12-18T13:08:28;18.20;34.10
38464;DHT22;24243;51.956;5.902;2022-12-18T13:10:54;18.20;34.00
38464;DHT22;24243;51.956;5.902;2022-12-18T13:13:48;18.20;34.00
38464;DHT22;24243;51.956;5.902;2022-12-18T13:16:14;18.10;34.00
38464;DHT22;24243;51.956;5.902;2022-12-18T13:18:48;18.10;33.90
38464;DHT22;24243;51.956;5.902;2022-12-18T13:21:24;18.10;33.90
38464;DHT22;24243;51.956;5.902;2022-12-18T13:23:53;18.10;33.90
38464;DHT22;24243;51.956;5.902;2022-12-18T13:31:15;18.00;34.00
38464;DHT22;24243;51.956;5.902;2022-12-18T13:36:41;18.00;34.10
38464;DHT22;24243;51.956;5.902;2022-12-18T13:41:49;18.00;34.40
38464;DHT22;24243;51.956;5.902;2022-12-18T13:46:50;18.00;34.50
38464;DHT22;24243;51.956;5.902;2022-12-18T13:49:20;18.10;34.50
38464;DHT22;24243;51.956;5.902;2022-12-18T13:51:47;18.10;34.50
38464;DHT22;24243;51.956;5.902;2022-12-18T13:56:58;18.10;34.60
38464;DHT22;24243;51.956;5.902;2022-12-18T13:59:24;18.20;34.70
38464;DHT22;24243;51.956;5.902;2022-12-18T14:04:20;18.30;34.80
38464;DHT22;24243;51.956;5.902;2022-12-18T14:06:46;18.40;34.90
38464;DHT22;24243;51.956;5.902;2022-12-18T14:09:13;18.40;34.90
38464;DHT22;24243;51.956;5.902;2022-12-18T14:11:39;18.40;34.90
38464;DHT22;24243;51.956;5.902;2022-12-18T14:14:05;18.40;35.00
38464;DHT22;24243;51.956;5.902;2022-12-18T14:16:32;18.50;35.10
38464;DHT22;24243;51.956;5.902;2022-12-18T14:18:59;18.50;35.20
38464;DHT22;24243;51.956;5.902;2022-12-18T14:21:26;18.60;35.30
38464;DHT22;24243;51.956;5.902;2022-12-18T14:26:36;18.60;35.40
38464;DHT22;24243;51.956;5.902;2022-12-18T14:29:18;18.70;35.50
38464;DHT22;24243;51.956;5.902;2022-12-18T14:31:44;18.70;35.60
38464;DHT22;24243;51.956;5.902;2022-12-18T14:34:16;18.70;35.60
38464;DHT22;24243;51.956;5.902;2022-12-18T14:36:41;18.70;35.70
38464;DHT22;24243;51.956;5.902;2022-12-18T14:39:17;18.70;35.70
38464;DHT22;24243;51.956;5.902;2022-12-18T14:41:42;18.80;35.80
38464;DHT22;24243;51.956;5.902;2022-12-18T14:44:11;18.70;35.80
38464;DHT22;24243;51.956;5.902;2022-12-18T14:49:04;18.80;35.80
38464;DHT22;24243;51.956;5.902;2022-12-18T14:51:31;18.80;35.80
38464;DHT22;24243;51.956;5.902;2022-12-18T14:53:59;18.80;35.80
38464;DHT22;24243;51.956;5.902;2022-12-18T14:56:29;18.80;35.70
38464;DHT22;24243;51.956;5.902;2022-12-18T14:58:56;18.80;35.70
38464;DHT22;24243;51.956;5.902;2022-12-18T15:01:33;18.80;35.70
38464;DHT22;24243;51.956;5.902;2022-12-18T15:03:59;18.80;35.70
38464;DHT22;24243;51.956;5.902;2022-12-18T15:06:32;18.80;35.60
38464;DHT22;24243;51.956;5.902;2022-12-18T15:09:00;18.80;35.60
38464;DHT22;24243;51.956;5.902;2022-12-18T15:11:32;18.80;35.60
38464;DHT22;24243;51.956;5.902;2022-12-18T15:13:58;18.80;35.60
38464;DHT22;24243;51.956;5.902;2022-12-18T15:16:24;18.80;35.50
38464;DHT22;24243;51.956;5.902;2022-12-18T15:18:50;18.80;35.50
38464;DHT22;24243;51.956;5.902;2022-12-18T15:21:16;18.80;35.50
38464;DHT22;24243;51.956;5.902;2022-12-18T15:23:47;18.80;35.40
38464;DHT22;24243;51.956;5.902;2022-12-18T15:26:14;18.90;35.40
38464;DHT22;24243;51.956;5.902;2022-12-18T15:28:44;18.80;35.30
38464;DHT22;24243;51.956;5.902;2022-12-18T15:33:39;18.90;35.30
38464;DHT22;24243;51.956;5.902;2022-12-18T15:36:08;18.90;35.30
38464;DHT22;24243;51.956;5.902;2022-12-18T15:38:34;18.90;35.20
38464;DHT22;24243;51.956;5.902;2022-12-18T15:41:00;18.90;35.20
38464;DHT22;24243;51.956;5.902;2022-12-18T15:43:26;18.90;35.20
38464;DHT22;24243;51.956;5.902;2022-12-18T15:48:27;18.90;35.20
38464;DHT22;24243;51.956;5.902;2022-12-18T15:50:53;18.90;35.20
38464;DHT22;24243;51.956;5.902;2022-12-18T15:53:22;18.90;35.20
38464;DHT22;24243;51.956;5.902;2022-12-18T15:55:48;18.90;35.20
38464;DHT22;24243;51.956;5.902;2022-12-18T15:58:32;18.90;35.20
38464;DHT22;24243;51.956;5.902;2022-12-18T16:00:58;18.90;35.20
38464;DHT22;24243;51.956;5.902;2022-12-18T16:03:24;18.90;35.20
38464;DHT22;24243;51.956;5.902;2022-12-18T16:05:49;19.00;35.20
38464;DHT22;24243;51.956;5.902;2022-12-18T16:08:15;18.90;35.20
38464;DHT22;24243;51.956;5.902;2022-12-18T16:10:41;19.00;35.20
38464;DHT22;24243;51.956;5.902;2022-12-18T16:13:09;19.00;35.20
38464;DHT22;24243;51.956;5.902;2022-12-18T16:15:35;19.00;35.20
38464;DHT22;24243;51.956;5.902;2022-12-18T16:18:01;19.00;35.10
38464;DHT22;24243;51.956;5.902;2022-12-18T16:20:26;19.00;35.10
38464;DHT22;24243;51.956;5.902;2022-12-18T16:22:52;19.00;35.10
38464;DHT22;24243;51.956;5.902;2022-12-18T16:27:44;19.00;35.10
38464;DHT22;24243;51.956;5.902;2022-12-18T16:30:13;19.00;35.10
38464;DHT22;24243;51.956;5.902;2022-12-18T16:32:39;19.00;35.10
38464;DHT22;24243;51.956;5.902;2022-12-18T16:35:05;19.00;35.10
38464;DHT22;24243;51.956;5.902;2022-12-18T16:37:30;19.00;35.00
38464;DHT22;24243;51.956;5.902;2022-12-18T16:39:56;19.00;35.00
38464;DHT22;24243;51.956;5.902;2022-12-18T16:42:21;19.00;35.00
38464;DHT22;24243;51.956;5.902;2022-12-18T16:44:47;19.00;35.00
38464;DHT22;24243;51.956;5.902;2022-12-18T16:47:13;19.10;35.00
38464;DHT22;24243;51.956;5.902;2022-12-18T16:49:39;19.10;35.00
38464;DHT22;24243;51.956;5.902;2022-12-18T16:52:05;19.10;35.00
38464;DHT22;24243;51.956;5.902;2022-12-18T16:54:30;19.10;35.00
38464;DHT22;24243;51.956;5.902;2022-12-18T16:56:57;19.10;35.00
38464;DHT22;24243;51.956;5.902;2022-12-18T16:59:23;19.10;35.00
38464;DHT22;24243;51.956;5.902;2022-12-18T17:01:50;19.10;34.90
38464;DHT22;24243;51.956;5.902;2022-12-18T17:04:16;19.10;34.90
38464;DHT22;24243;51.956;5.902;2022-12-18T17:06:42;19.10;34.90
38464;DHT22;24243;51.956;5.902;2022-12-18T17:09:13;19.10;34.90
38464;DHT22;24243;51.956;5.902;2022-12-18T17:11:39;19.10;34.80
38464;DHT22;24243;51.956;5.902;2022-12-18T17:14:06;19.10;34.80